sensor_id;sensor_type;location;lat;lon;timestamp;temperature;humidity
18797;DHT22;9526;52.612;13.300;2023-02-07T00:01:22;-5.30;99.90
18797;DHT22;9526;52.612;13.300;2023-02-07T00:03:47;-5.30;99.90
18797;DHT22;9526;52.612;13.300;2023-02-07T00:06:14;-5.30;99.90
18797;DHT22;9526;52.612;13.300;2023-02-07T00:08:39;-5.30;99.90
18797;DHT22;9526;52.612;13.300;2023-02-07T00:11:04;-5.30;99.90
18797;DHT22;9526;52.612;13.300;2023-02-07T00:13:28;-5.30;99.90
18797;DHT22;9526;52.612;13.300;2023-02-07T00:15:52;-5.40;99.90
18797;DHT22;9526;52.612;13.300;2023-02-07T00:18:16;-5.40;99.90
18797;DHT22;9526;52.612;13.300;2023-02-07T00:20:41;-5.40;99.90
18797;DHT22;9526;52.612;13.300;2023-02-07T00:23:05;-5.40;99.90
18797;DHT22;9526;52.612;13.300;2023-02-07T00:25:29;-5.40;99.90
18797;DHT22;9526;52.612;13.300;2023-02-07T00:27:52;-5.40;99.90
18797;DHT22;9526;52.612;13.300;2023-02-07T00:30:16;-5.50;99.90
18797;DHT22;9526;52.612;13.300;2023-02-07T00:32:40;-5.50;99.90
18797;DHT22;9526;52.612;13.300;2023-02-07T00:35:05;-5.50;99.90
18797;DHT22;9526;52.612;13.300;2023-02-07T00:37:31;-5.50;99.90
18797;DHT22;9526;52.612;13.300;2023-02-07T00:39:54;-5.50;99.90
18797;DHT22;9526;52.612;13.300;2023-02-07T00:42:18;-5.50;99.90
18797;DHT22;9526;52.612;13.300;2023-02-07T00:44:42;-5.50;99.90
18797;DHT22;9526;52.612;13.300;2023-02-07T00:47:06;-5.60;99.90
18797;DHT22;9526;52.612;13.300;2023-02-07T00:49:29;-5.60;99.90
18797;DHT22;9526;52.612;13.300;2023-02-07T00:51:53;-5.60;99.90
18797;DHT22;9526;52.612;13.300;2023-02-07T00:54:18;-5.60;99.90
18797;DHT22;9526;52.612;13.300;2023-02-07T00:56:42;-5.60;99.90
18797;DHT22;9526;52.612;13.300;2023-02-07T00:59:06;-5.60;99.90
18797;DHT22;9526;52.612;13.300;2023-02-07T01:01:30;-5.70;99.90
18797;DHT22;9526;52.612;13.300;2023-02-07T01:03:54;-5.70;99.90
18797;DHT22;9526;52.612;13.300;2023-02-07T01:06:18;-5.60;99.90
18797;DHT22;9526;52.612;13.300;2023-02-07T01:08:43;-5.70;99.90
18797;DHT22;9526;52.612;13.300;2023-02-07T01:11:10;-5.50;99.90
18797;DHT22;9526;52.612;13.300;2023-02-07T01:13:36;-5.70;99.90
18797;DHT22;9526;52.612;13.300;2023-02-07T01:16:00;-5.70;99.90
18797;DHT22;9526;52.612;13.300;2023-02-07T01:18:25;-5.70;99.90
18797;DHT22;9526;52.612;13.300;2023-02-07T01:20:49;-5.70;99.90
18797;DHT22;9526;52.612;13.300;2023-02-07T01:23:13;-5.70;99.90
18797;DHT22;9526;52.612;13.300;2023-02-07T01:25:38;-5.70;99.90
18797;DHT22;9526;52.612;13.300;2023-02-07T01:28:04;-5.70;99.90
18797;DHT22;9526;52.612;13.300;2023-02-07T01:30:28;-5.70;99.90
18797;DHT22;9526;52.612;13.300;2023-02-07T01:32:52;-5.70;99.90
18797;DHT22;9526;52.612;13.300;2023-02-07T01:35:16;-5.70;99.90
18797;DHT22;9526;52.612;13.300;2023-02-07T01:37:40;-5.70;99.90
18797;DHT22;9526;52.612;13.300;2023-02-07T01:40:04;-5.70;99.90
18797;DHT22;9526;52.612;13.300;2023-02-07T01:42:30;-5.70;99.90
18797;DHT22;9526;52.612;13.300;2023-02-07T01:45:11;-5.70;99.90
18797;DHT22;9526;52.612;13.300;2023-02-07T01:47:42;-5.70;99.90
18797;DHT22;9526;52.612;13.300;2023-02-07T01:50:06;-5.70;99.90
18797;DHT22;9526;52.612;13.300;2023-02-07T01:52:34;-5.70;99.90
18797;DHT22;9526;52.612;13.300;2023-02-07T01:55:01;-5.80;99.90
18797;DHT22;9526;52.612;13.300;2023-02-07T01:57:27;-5.80;99.90
18797;DHT22;9526;52.612;13.300;2023-02-07T01:59:52;-5.80;99.90
18797;DHT22;9526;52.612;13.300;2023-02-07T02:02:20;-5.90;99.90
18797;DHT22;9526;52.612;13.300;2023-02-07T02:04:45;-5.80;99.90
18797;DHT22;9526;52.612;13.300;2023-02-07T02:07:10;-5.90;99.90
18797;DHT22;9526;52.612;13.300;2023-02-07T02:09:36;-5.90;99.90
18797;DHT22;9526;52.612;13.300;2023-02-07T02:12:17;-5.90;99.90
18797;DHT22;9526;52.612;13.300;2023-02-07T02:15:15;-5.90;99.90
18797;DHT22;9526;52.612;13.300;2023-02-07T02:17:59;-5.90;99.90
18797;DHT22;9526;52.612;13.300;2023-02-07T02:20:52;-6.00;99.90
18797;DHT22;9526;52.612;13.300;2023-02-07T02:23:48;-5.90;99.90
18797;DHT22;9526;52.612;13.300;2023-02-07T02:26:55;-6.00;99.90
18797;DHT22;9526;52.612;13.300;2023-02-07T02:33:08;-6.00;99.90
18797;DHT22;9526;52.612;13.300;2023-02-07T02:35:45;-6.10;99.90
18797;DHT22;9526;52.612;13.300;2023-02-07T02:38:18;-6.10;99.90
18797;DHT22;9526;52.612;13.300;2023-02-07T02:40:50;-6.10;99.90
18797;DHT22;9526;52.612;13.300;2023-02-07T02:43:26;-6.10;99.90
18797;DHT22;9526;52.612;13.300;2023-02-07T02:45:58;-6.20;99.90
18797;DHT22;9526;52.612;13.300;2023-02-07T02:48:26;-6.20;99.90
18797;DHT22;9526;52.612;13.300;2023-02-07T02:50:53;-6.20;99.90
18797;DHT22;9526;52.612;13.300;2023-02-07T02:53:17;-6.20;99.90
18797;DHT22;9526;52.612;13.300;2023-02-07T02:59:00;-6.20;99.90
18797;DHT22;9526;52.612;13.300;2023-02-07T03:01:38;-6.20;99.90
18797;DHT22;9526;52.612;13.300;2023-02-07T03:04:31;-6.20;99.90
18797;DHT22;9526;52.612;13.300;2023-02-07T03:07:23;-6.30;99.90
18797;DHT22;9526;52.612;13.300;2023-02-07T03:10:02;-6.30;99.90
18797;DHT22;9526;52.612;13.300;2023-02-07T03:12:36;-6.30;99.90
18797;DHT22;9526;52.612;13.300;2023-02-07T03:15:10;-6.30;99.90
18797;DHT22;9526;52.612;13.300;2023-02-07T03:17:44;-6.40;99.90
18797;DHT22;9526;52.612;13.300;2023-02-07T03:20:16;-6.40;99.90
18797;DHT22;9526;52.612;13.300;2023-02-07T03:22:43;-6.40;99.90
18797;DHT22;9526;52.612;13.300;2023-02-07T03:25:07;-6.40;99.90
18797;DHT22;9526;52.612;13.300;2023-02-07T03:27:33;-6.40;99.90
18797;DHT22;9526;52.612;13.300;2023-02-07T03:30:00;-6.40;99.90
18797;DHT22;9526;52.612;13.300;2023-02-07T03:32:30;-6.40;99.90
18797;DHT22;9526;52.612;13.300;2023-02-07T03:35:02;-6.40;99.90
18797;DHT22;9526;52.612;13.300;2023-02-07T03:37:33;-6.40;99.90
18797;DHT22;9526;52.612;13.300;2023-02-07T03:39:58;-6.40;99.90
18797;DHT22;9526;52.612;13.300;2023-02-07T03:42:25;-6.50;99.90
18797;DHT22;9526;52.612;13.300;2023-02-07T03:44:53;-6.40;99.90
18797;DHT22;9526;52.612;13.300;2023-02-07T03:47:19;-6.40;99.90
18797;DHT22;9526;52.612;13.300;2023-02-07T03:49:42;-6.50;99.90
18797;DHT22;9526;52.612;13.300;2023-02-07T03:52:06;-6.50;99.90
18797;DHT22;9526;52.612;13.300;2023-02-07T03:54:31;-6.50;99.90
18797;DHT22;9526;52.612;13.300;2023-02-07T03:56:55;-6.50;99.90
18797;DHT22;9526;52.612;13.300;2023-02-07T03:59:19;-6.50;99.90
18797;DHT22;9526;52.612;13.300;2023-02-07T04:01:42;-6.50;99.90
18797;DHT22;9526;52.612;13.300;2023-02-07T04:04:07;-6.50;99.90
18797;DHT22;9526;52.612;13.300;2023-02-07T04:06:30;-6.60;99.90
18797;DHT22;9526;52.612;13.300;2023-02-07T04:08:54;-6.50;99.90
18797;DHT22;9526;52.612;13.300;2023-02-07T04:11:22;-6.50;99.90
18797;DHT22;9526;52.612;13.300;2023-02-07T04:13:45;-6.60;99.90
18797;DHT22;9526;52.612;13.300;2023-02-07T04:16:09;-6.60;99.90
18797;DHT22;9526;52.612;13.300;2023-02-07T04:18:33;-6.60;99.90
18797;DHT22;9526;52.612;13.300;2023-02-07T04:21:00;-6.60;99.90
18797;DHT22;9526;52.612;13.300;2023-02-07T04:23:25;-6.60;99.90
18797;DHT22;9526;52.612;13.300;2023-02-07T04:25:48;-6.60;99.90
18797;DHT22;9526;52.612;13.300;2023-02-07T04:28:14;-6.60;99.90
18797;DHT22;9526;52.612;13.300;2023-02-07T04:30:37;-6.60;99.90
18797;DHT22;9526;52.612;13.300;2023-02-07T04:33:01;-6.60;99.90
18797;DHT22;9526;52.612;13.300;2023-02-07T04:35:25;-6.60;99.90
18797;DHT22;9526;52.612;13.300;2023-02-07T04:37:49;-6.60;99.90
18797;DHT22;9526;52.612;13.300;2023-02-07T04:40:12;-6.60;99.90
18797;DHT22;9526;52.612;13.300;2023-02-07T04:42:36;-6.60;99.90
18797;DHT22;9526;52.612;13.300;2023-02-07T04:45:02;-6.60;99.90
18797;DHT22;9526;52.612;13.300;2023-02-07T04:47:26;-6.50;99.90
18797;DHT22;9526;52.612;13.300;2023-02-07T04:49:49;-6.70;99.90
18797;DHT22;9526;52.612;13.300;2023-02-07T04:52:13;-6.70;99.90
18797;DHT22;9526;52.612;13.300;2023-02-07T04:54:37;-6.70;99.90
18797;DHT22;9526;52.612;13.300;2023-02-07T04:57:01;-6.70;99.90
18797;DHT22;9526;52.612;13.300;2023-02-07T04:59:24;-6.70;99.90
18797;DHT22;9526;52.612;13.300;2023-02-07T05:01:50;-6.70;99.90
18797;DHT22;9526;52.612;13.300;2023-02-07T05:04:13;-6.70;99.90
18797;DHT22;9526;52.612;13.300;2023-02-07T05:06:37;-6.70;99.90
18797;DHT22;9526;52.612;13.300;2023-02-07T05:09:01;-6.60;99.90
18797;DHT22;9526;52.612;13.300;2023-02-07T05:11:25;-6.70;99.90
18797;DHT22;9526;52.612;13.300;2023-02-07T05:13:49;-6.70;99.90
18797;DHT22;9526;52.612;13.300;2023-02-07T05:16:12;-6.70;99.90
18797;DHT22;9526;52.612;13.300;2023-02-07T05:18:38;-6.70;99.90
18797;DHT22;9526;52.612;13.300;2023-02-07T05:21:01;-6.70;99.90
18797;DHT22;9526;52.612;13.300;2023-02-07T05:23:25;-6.70;99.90
18797;DHT22;9526;52.612;13.300;2023-02-07T05:25:49;-6.70;99.90
18797;DHT22;9526;52.612;13.300;2023-02-07T05:28:13;-6.80;99.90
18797;DHT22;9526;52.612;13.300;2023-02-07T05:30:37;-6.80;99.90
18797;DHT22;9526;52.612;13.300;2023-02-07T05:33:01;-6.80;99.90
18797;DHT22;9526;52.612;13.300;2023-02-07T05:35:32;-6.80;99.90
18797;DHT22;9526;52.612;13.300;2023-02-07T05:37:56;-6.80;99.90
18797;DHT22;9526;52.612;13.300;2023-02-07T05:40:20;-6.80;99.90
18797;DHT22;9526;52.612;13.300;2023-02-07T05:42:46;-6.80;99.90
18797;DHT22;9526;52.612;13.300;2023-02-07T05:45:10;-6.80;99.90
18797;DHT22;9526;52.612;13.300;2023-02-07T05:47:34;-6.70;99.90
18797;DHT22;9526;52.612;13.300;2023-02-07T05:49:58;-6.80;99.90
18797;DHT22;9526;52.612;13.300;2023-02-07T05:52:23;-6.80;99.90
18797;DHT22;9526;52.612;13.300;2023-02-07T05:54:47;-6.80;99.90
18797;DHT22;9526;52.612;13.300;2023-02-07T05:57:11;-6.90;99.90
18797;DHT22;9526;52.612;13.300;2023-02-07T05:59:35;-6.80;99.90
18797;DHT22;9526;52.612;13.300;2023-02-07T06:01:58;-6.80;99.90
18797;DHT22;9526;52.612;13.300;2023-02-07T06:04:22;-6.90;99.90
18797;DHT22;9526;52.612;13.300;2023-02-07T06:06:46;-6.90;99.90
18797;DHT22;9526;52.612;13.300;2023-02-07T06:09:11;-6.70;99.90
18797;DHT22;9526;52.612;13.300;2023-02-07T06:11:35;-6.70;99.90
18797;DHT22;9526;52.612;13.300;2023-02-07T06:13:59;-6.90;99.90
18797;DHT22;9526;52.612;13.300;2023-02-07T06:16:25;-6.90;99.90
18797;DHT22;9526;52.612;13.300;2023-02-07T06:18:49;-6.90;99.90
18797;DHT22;9526;52.612;13.300;2023-02-07T06:21:13;-6.90;99.90
18797;DHT22;9526;52.612;13.300;2023-02-07T06:23:37;-6.90;99.90
18797;DHT22;9526;52.612;13.300;2023-02-07T06:26:03;-6.80;99.90
18797;DHT22;9526;52.612;13.300;2023-02-07T06:28:27;-6.90;99.90
18797;DHT22;9526;52.612;13.300;2023-02-07T06:30:51;-6.70;99.90
18797;DHT22;9526;52.612;13.300;2023-02-07T06:33:15;-6.80;99.90
18797;DHT22;9526;52.612;13.300;2023-02-07T06:35:39;-6.80;99.90
18797;DHT22;9526;52.612;13.300;2023-02-07T06:38:08;-6.80;99.90
18797;DHT22;9526;52.612;13.300;2023-02-07T06:40:32;-6.90;99.90
18797;DHT22;9526;52.612;13.300;2023-02-07T06:42:57;-6.70;99.90
18797;DHT22;9526;52.612;13.300;2023-02-07T06:45:21;-6.90;99.90
18797;DHT22;9526;52.612;13.300;2023-02-07T06:47:45;-6.90;99.90
18797;DHT22;9526;52.612;13.300;2023-02-07T06:50:08;-6.80;99.90
18797;DHT22;9526;52.612;13.300;2023-02-07T06:52:32;-6.80;99.90
18797;DHT22;9526;52.612;13.300;2023-02-07T06:54:56;-6.80;99.90
18797;DHT22;9526;52.612;13.300;2023-02-07T06:57:20;-6.80;99.90
18797;DHT22;9526;52.612;13.300;2023-02-07T06:59:45;-6.80;99.90
18797;DHT22;9526;52.612;13.300;2023-02-07T07:02:10;-6.60;99.90
18797;DHT22;9526;52.612;13.300;2023-02-07T07:04:34;-6.70;99.90
18797;DHT22;9526;52.612;13.300;2023-02-07T07:06:58;-6.80;99.90
18797;DHT22;9526;52.612;13.300;2023-02-07T07:09:22;-6.60;99.90
18797;DHT22;9526;52.612;13.300;2023-02-07T07:11:46;-6.70;99.90
18797;DHT22;9526;52.612;13.300;2023-02-07T07:14:10;-6.60;99.90
18797;DHT22;9526;52.612;13.300;2023-02-07T07:16:35;-6.60;99.90
18797;DHT22;9526;52.612;13.300;2023-02-07T07:18:59;-6.60;99.90
18797;DHT22;9526;52.612;13.300;2023-02-07T07:21:23;-6.60;99.90
18797;DHT22;9526;52.612;13.300;2023-02-07T07:23:49;-6.60;99.90
18797;DHT22;9526;52.612;13.300;2023-02-07T07:26:13;-6.50;99.90
18797;DHT22;9526;52.612;13.300;2023-02-07T07:28:36;-6.50;99.90
18797;DHT22;9526;52.612;13.300;2023-02-07T07:31:04;-6.40;99.90
18797;DHT22;9526;52.612;13.300;2023-02-07T07:33:30;-6.40;99.90
18797;DHT22;9526;52.612;13.300;2023-02-07T07:35:56;-6.40;99.90
18797;DHT22;9526;52.612;13.300;2023-02-07T07:38:19;-6.30;99.90
18797;DHT22;9526;52.612;13.300;2023-02-07T07:40:43;-6.30;99.90
18797;DHT22;9526;52.612;13.300;2023-02-07T07:43:07;-6.20;99.90
18797;DHT22;9526;52.612;13.300;2023-02-07T07:45:39;-6.20;99.90
18797;DHT22;9526;52.612;13.300;2023-02-07T07:48:03;-6.10;99.90
18797;DHT22;9526;52.612;13.300;2023-02-07T07:50:29;-6.00;99.90
18797;DHT22;9526;52.612;13.300;2023-02-07T07:52:53;-6.00;99.90
18797;DHT22;9526;52.612;13.300;2023-02-07T07:55:17;-5.80;99.90
18797;DHT22;9526;52.612;13.300;2023-02-07T07:57:41;-5.80;99.90
18797;DHT22;9526;52.612;13.300;2023-02-07T08:00:05;-5.80;99.90
18797;DHT22;9526;52.612;13.300;2023-02-07T08:02:34;-5.70;99.90
18797;DHT22;9526;52.612;13.300;2023-02-07T08:04:58;-5.60;99.90
18797;DHT22;9526;52.612;13.300;2023-02-07T08:07:23;-5.60;99.90
18797;DHT22;9526;52.612;13.300;2023-02-07T08:09:47;-5.50;99.90
18797;DHT22;9526;52.612;13.300;2023-02-07T08:12:10;-5.40;99.90
18797;DHT22;9526;52.612;13.300;2023-02-07T08:14:34;-5.30;99.90
18797;DHT22;9526;52.612;13.300;2023-02-07T08:16:58;-5.20;99.90
18797;DHT22;9526;52.612;13.300;2023-02-07T08:19:22;-5.20;99.90
18797;DHT22;9526;52.612;13.300;2023-02-07T08:21:46;-5.10;99.90
18797;DHT22;9526;52.612;13.300;2023-02-07T08:24:11;-5.00;99.90
18797;DHT22;9526;52.612;13.300;2023-02-07T08:26:34;-4.90;99.90
18797;DHT22;9526;52.612;13.300;2023-02-07T08:28:58;-4.70;99.90
18797;DHT22;9526;52.612;13.300;2023-02-07T08:31:22;-4.60;99.90
18797;DHT22;9526;52.612;13.300;2023-02-07T08:33:46;-4.50;99.90
18797;DHT22;9526;52.612;13.300;2023-02-07T08:36:09;-4.40;99.90
18797;DHT22;9526;52.612;13.300;2023-02-07T08:38:33;-4.30;99.90
18797;DHT22;9526;52.612;13.300;2023-02-07T08:41:00;-4.20;99.90
18797;DHT22;9526;52.612;13.300;2023-02-07T08:43:23;-3.90;99.90
18797;DHT22;9526;52.612;13.300;2023-02-07T08:45:48;-3.60;99.90
18797;DHT22;9526;52.612;13.300;2023-02-07T08:48:12;-3.10;99.90
18797;DHT22;9526;52.612;13.300;2023-02-07T08:50:36;-2.80;99.90
18797;DHT22;9526;52.612;13.300;2023-02-07T08:53:00;-2.70;99.90
18797;DHT22;9526;52.612;13.300;2023-02-07T08:55:24;-2.60;99.90
18797;DHT22;9526;52.612;13.300;2023-02-07T08:57:49;-2.30;99.90
18797;DHT22;9526;52.612;13.300;2023-02-07T09:00:13;-2.30;99.90
18797;DHT22;9526;52.612;13.300;2023-02-07T09:02:38;-2.10;99.90
18797;DHT22;9526;52.612;13.300;2023-02-07T09:05:03;-1.80;99.90
18797;DHT22;9526;52.612;13.300;2023-02-07T09:07:27;-1.50;99.90
18797;DHT22;9526;52.612;13.300;2023-02-07T09:09:52;-1.20;99.90
18797;DHT22;9526;52.612;13.300;2023-02-07T09:12:16;-1.00;99.90
18797;DHT22;9526;52.612;13.300;2023-02-07T09:14:41;-0.70;99.90
18797;DHT22;9526;52.612;13.300;2023-02-07T09:17:05;-0.50;99.90
18797;DHT22;9526;52.612;13.300;2023-02-07T09:19:30;-0.20;99.90
18797;DHT22;9526;52.612;13.300;2023-02-07T09:21:53;0.00;99.90
18797;DHT22;9526;52.612;13.300;2023-02-07T09:24:17;0.30;99.90
18797;DHT22;9526;52.612;13.300;2023-02-07T09:26:41;0.60;99.90
18797;DHT22;9526;52.612;13.300;2023-02-07T09:29:06;0.70;99.90
18797;DHT22;9526;52.612;13.300;2023-02-07T09:31:34;0.90;99.90
18797;DHT22;9526;52.612;13.300;2023-02-07T09:33:57;1.00;99.90
18797;DHT22;9526;52.612;13.300;2023-02-07T09:36:23;1.40;99.90
18797;DHT22;9526;52.612;13.300;2023-02-07T09:38:48;1.80;99.90
18797;DHT22;9526;52.612;13.300;2023-02-07T09:41:18;2.40;99.90
18797;DHT22;9526;52.612;13.300;2023-02-07T09:43:55;3.00;99.90
18797;DHT22;9526;52.612;13.300;2023-02-07T09:46:24;3.60;99.90
18797;DHT22;9526;52.612;13.300;2023-02-07T09:49:03;4.00;99.90
18797;DHT22;9526;52.612;13.300;2023-02-07T09:51:30;4.40;99.90
18797;DHT22;9526;52.612;13.300;2023-02-07T09:53:58;4.80;99.90
18797;DHT22;9526;52.612;13.300;2023-02-07T09:56:28;5.20;99.90
18797;DHT22;9526;52.612;13.300;2023-02-07T09:58:56;5.40;99.90
18797;DHT22;9526;52.612;13.300;2023-02-07T10:01:26;5.60;99.90
18797;DHT22;9526;52.612;13.300;2023-02-07T10:04:07;5.80;99.90
18797;DHT22;9526;52.612;13.300;2023-02-07T10:06:40;6.10;99.90
18797;DHT22;9526;52.612;13.300;2023-02-07T10:09:12;6.40;99.90
18797;DHT22;9526;52.612;13.300;2023-02-07T10:11:44;6.80;99.90
18797;DHT22;9526;52.612;13.300;2023-02-07T10:14:26;7.00;99.90
18797;DHT22;9526;52.612;13.300;2023-02-07T10:17:04;7.10;99.90
18797;DHT22;9526;52.612;13.300;2023-02-07T10:20:00;7.20;99.90
18797;DHT22;9526;52.612;13.300;2023-02-07T10:22:37;7.50;99.90
18797;DHT22;9526;52.612;13.300;2023-02-07T10:25:12;7.90;99.90
18797;DHT22;9526;52.612;13.300;2023-02-07T10:27:51;7.80;99.90
18797;DHT22;9526;52.612;13.300;2023-02-07T10:30:24;8.00;99.90
18797;DHT22;9526;52.612;13.300;2023-02-07T10:32:50;8.50;99.90
18797;DHT22;9526;52.612;13.300;2023-02-07T10:35:18;8.10;99.90
18797;DHT22;9526;52.612;13.300;2023-02-07T10:37:43;8.20;99.90
18797;DHT22;9526;52.612;13.300;2023-02-07T10:40:14;8.40;99.90
18797;DHT22;9526;52.612;13.300;2023-02-07T10:42:39;8.60;99.90
18797;DHT22;9526;52.612;13.300;2023-02-07T10:45:05;8.10;99.90
18797;DHT22;9526;52.612;13.300;2023-02-07T10:47:37;8.00;99.90
18797;DHT22;9526;52.612;13.300;2023-02-07T10:50:07;7.60;99.90
18797;DHT22;9526;52.612;13.300;2023-02-07T10:52:39;7.00;99.90
18797;DHT22;9526;52.612;13.300;2023-02-07T10:55:08;6.50;99.90
18797;DHT22;9526;52.612;13.300;2023-02-07T10:57:32;6.30;99.90
18797;DHT22;9526;52.612;13.300;2023-02-07T10:59:59;6.10;99.90
18797;DHT22;9526;52.612;13.300;2023-02-07T11:02:47;6.00;99.90
18797;DHT22;9526;52.612;13.300;2023-02-07T11:05:31;5.80;99.90
18797;DHT22;9526;52.612;13.300;2023-02-07T11:07:59;5.90;99.90
18797;DHT22;9526;52.612;13.300;2023-02-07T11:10:25;5.80;99.90
18797;DHT22;9526;52.612;13.300;2023-02-07T11:12:54;5.90;99.90
18797;DHT22;9526;52.612;13.300;2023-02-07T11:15:21;5.80;99.90
18797;DHT22;9526;52.612;13.300;2023-02-07T11:17:47;6.00;99.90
18797;DHT22;9526;52.612;13.300;2023-02-07T11:20:18;6.00;99.90
18797;DHT22;9526;52.612;13.300;2023-02-07T11:22:44;5.70;99.90
18797;DHT22;9526;52.612;13.300;2023-02-07T11:25:10;5.60;99.90
18797;DHT22;9526;52.612;13.300;2023-02-07T11:27:36;5.50;99.90
18797;DHT22;9526;52.612;13.300;2023-02-07T11:30:07;5.20;99.90
18797;DHT22;9526;52.612;13.300;2023-02-07T11:32:36;4.90;99.90
18797;DHT22;9526;52.612;13.300;2023-02-07T11:35:03;4.70;99.90
18797;DHT22;9526;52.612;13.300;2023-02-07T11:37:31;4.40;99.90
18797;DHT22;9526;52.612;13.300;2023-02-07T11:42:42;4.20;99.90
18797;DHT22;9526;52.612;13.300;2023-02-07T11:45:12;4.00;99.90
18797;DHT22;9526;52.612;13.300;2023-02-07T11:47:40;3.90;99.90
18797;DHT22;9526;52.612;13.300;2023-02-07T11:50:06;3.80;99.90
18797;DHT22;9526;52.612;13.300;2023-02-07T11:52:31;3.60;99.90
18797;DHT22;9526;52.612;13.300;2023-02-07T11:54:59;3.50;99.90
18797;DHT22;9526;52.612;13.300;2023-02-07T11:57:27;3.40;99.90
18797;DHT22;9526;52.612;13.300;2023-02-07T12:00:02;3.30;99.90
18797;DHT22;9526;52.612;13.300;2023-02-07T12:02:35;3.20;99.90
18797;DHT22;9526;52.612;13.300;2023-02-07T12:05:11;3.10;99.90
18797;DHT22;9526;52.612;13.300;2023-02-07T12:07:42;2.90;99.90
18797;DHT22;9526;52.612;13.300;2023-02-07T12:10:13;2.80;99.90
18797;DHT22;9526;52.612;13.300;2023-02-07T12:12:42;2.80;99.90
18797;DHT22;9526;52.612;13.300;2023-02-07T12:15:15;2.80;99.90
18797;DHT22;9526;52.612;13.300;2023-02-07T12:17:52;2.70;99.90
18797;DHT22;9526;52.612;13.300;2023-02-07T12:20:22;2.60;99.90
18797;DHT22;9526;52.612;13.300;2023-02-07T12:22:51;2.60;99.90
18797;DHT22;9526;52.612;13.300;2023-02-07T12:25:40;2.60;99.90
18797;DHT22;9526;52.612;13.300;2023-02-07T12:28:16;2.50;99.90
18797;DHT22;9526;52.612;13.300;2023-02-07T12:30:45;2.50;99.90
18797;DHT22;9526;52.612;13.300;2023-02-07T12:33:16;2.50;99.90
18797;DHT22;9526;52.612;13.300;2023-02-07T12:35:58;2.50;99.90
18797;DHT22;9526;52.612;13.300;2023-02-07T12:38:31;2.50;99.90
18797;DHT22;9526;52.612;13.300;2023-02-07T12:41:03;2.50;99.90
18797;DHT22;9526;52.612;13.300;2023-02-07T12:43:37;2.50;99.90
18797;DHT22;9526;52.612;13.300;2023-02-07T12:46:14;2.60;99.90
18797;DHT22;9526;52.612;13.300;2023-02-07T12:48:58;2.50;99.90
18797;DHT22;9526;52.612;13.300;2023-02-07T12:51:36;2.50;99.90
18797;DHT22;9526;52.612;13.300;2023-02-07T12:54:19;2.50;99.90
18797;DHT22;9526;52.612;13.300;2023-02-07T12:56:52;2.60;99.90
18797;DHT22;9526;52.612;13.300;2023-02-07T12:59:30;2.60;99.90
18797;DHT22;9526;52.612;13.300;2023-02-07T13:02:17;2.60;99.90
18797;DHT22;9526;52.612;13.300;2023-02-07T13:05:10;2.60;99.90
18797;DHT22;9526;52.612;13.300;2023-02-07T13:08:06;2.70;99.90
18797;DHT22;9526;52.612;13.300;2023-02-07T13:10:43;2.70;99.90
18797;DHT22;9526;52.612;13.300;2023-02-07T13:13:15;2.70;99.90
18797;DHT22;9526;52.612;13.300;2023-02-07T13:15:47;2.70;99.90
18797;DHT22;9526;52.612;13.300;2023-02-07T13:18:20;2.70;99.90
18797;DHT22;9526;52.612;13.300;2023-02-07T13:20:56;2.80;99.90
18797;DHT22;9526;52.612;13.300;2023-02-07T13:23:25;2.80;99.90
18797;DHT22;9526;52.612;13.300;2023-02-07T13:25:54;2.80;99.90
18797;DHT22;9526;52.612;13.300;2023-02-07T13:28:22;2.80;99.90
18797;DHT22;9526;52.612;13.300;2023-02-07T13:30:50;2.90;99.90
18797;DHT22;9526;52.612;13.300;2023-02-07T13:33:29;2.80;99.90
18797;DHT22;9526;52.612;13.300;2023-02-07T13:35:57;2.90;99.90
18797;DHT22;9526;52.612;13.300;2023-02-07T13:38:36;2.90;99.90
18797;DHT22;9526;52.612;13.300;2023-02-07T13:41:08;2.90;99.90
18797;DHT22;9526;52.612;13.300;2023-02-07T13:43:51;2.90;99.90
18797;DHT22;9526;52.612;13.300;2023-02-07T13:46:47;2.90;99.90
18797;DHT22;9526;52.612;13.300;2023-02-07T13:49:35;2.80;99.90
18797;DHT22;9526;52.612;13.300;2023-02-07T13:52:07;2.90;99.90
18797;DHT22;9526;52.612;13.300;2023-02-07T13:54:39;2.90;99.90
18797;DHT22;9526;52.612;13.300;2023-02-07T13:57:18;3.00;99.90
18797;DHT22;9526;52.612;13.300;2023-02-07T14:00:16;2.90;99.90
18797;DHT22;9526;52.612;13.300;2023-02-07T14:02:45;2.90;99.90
18797;DHT22;9526;52.612;13.300;2023-02-07T14:05:16;2.90;99.90
18797;DHT22;9526;52.612;13.300;2023-02-07T14:07:49;2.90;99.90
18797;DHT22;9526;52.612;13.300;2023-02-07T14:10:35;2.90;99.90
18797;DHT22;9526;52.612;13.300;2023-02-07T14:13:04;2.90;99.90
18797;DHT22;9526;52.612;13.300;2023-02-07T14:15:54;3.00;99.90
18797;DHT22;9526;52.612;13.300;2023-02-07T14:18:43;3.00;99.90
18797;DHT22;9526;52.612;13.300;2023-02-07T14:21:40;3.00;99.90
18797;DHT22;9526;52.612;13.300;2023-02-07T14:24:29;3.00;99.90
18797;DHT22;9526;52.612;13.300;2023-02-07T14:27:00;2.90;99.90
18797;DHT22;9526;52.612;13.300;2023-02-07T14:29:53;2.90;99.90
18797;DHT22;9526;52.612;13.300;2023-02-07T14:33:11;2.90;99.90
18797;DHT22;9526;52.612;13.300;2023-02-07T14:35:45;2.90;99.90
18797;DHT22;9526;52.612;13.300;2023-02-07T14:38:29;2.90;99.90
18797;DHT22;9526;52.612;13.300;2023-02-07T14:41:01;2.80;99.90
18797;DHT22;9526;52.612;13.300;2023-02-07T14:43:42;2.80;99.90
18797;DHT22;9526;52.612;13.300;2023-02-07T14:46:30;2.80;99.90
18797;DHT22;9526;52.612;13.300;2023-02-07T14:49:00;2.80;99.90
18797;DHT22;9526;52.612;13.300;2023-02-07T14:51:36;2.70;99.90
18797;DHT22;9526;52.612;13.300;2023-02-07T14:54:06;2.70;99.90
18797;DHT22;9526;52.612;13.300;2023-02-07T14:56:41;2.70;99.90
18797;DHT22;9526;52.612;13.300;2023-02-07T14:59:12;2.70;99.90
18797;DHT22;9526;52.612;13.300;2023-02-07T15:01:38;2.70;99.90
18797;DHT22;9526;52.612;13.300;2023-02-07T15:04:04;2.60;99.90
18797;DHT22;9526;52.612;13.300;2023-02-07T15:06:34;2.60;99.90
18797;DHT22;9526;52.612;13.300;2023-02-07T15:09:00;2.60;99.90
18797;DHT22;9526;52.612;13.300;2023-02-07T15:11:30;2.60;99.90
18797;DHT22;9526;52.612;13.300;2023-02-07T15:13:56;2.50;99.90
18797;DHT22;9526;52.612;13.300;2023-02-07T15:16:22;2.50;99.90
18797;DHT22;9526;52.612;13.300;2023-02-07T15:18:49;2.40;99.90
18797;DHT22;9526;52.612;13.300;2023-02-07T15:21:16;2.30;99.90
18797;DHT22;9526;52.612;13.300;2023-02-07T15:23:46;2.30;99.90
18797;DHT22;9526;52.612;13.300;2023-02-07T15:26:17;2.20;99.90
18797;DHT22;9526;52.612;13.300;2023-02-07T15:28:41;2.10;99.90
18797;DHT22;9526;52.612;13.300;2023-02-07T15:31:11;2.10;99.90
18797;DHT22;9526;52.612;13.300;2023-02-07T15:33:38;2.00;99.90
18797;DHT22;9526;52.612;13.300;2023-02-07T15:36:04;1.90;99.90
18797;DHT22;9526;52.612;13.300;2023-02-07T15:38:29;1.90;99.90
18797;DHT22;9526;52.612;13.300;2023-02-07T15:40:54;1.80;99.90
18797;DHT22;9526;52.612;13.300;2023-02-07T15:43:24;1.70;99.90
18797;DHT22;9526;52.612;13.300;2023-02-07T15:45:58;1.60;99.90
18797;DHT22;9526;52.612;13.300;2023-02-07T15:48:23;1.50;99.90
18797;DHT22;9526;52.612;13.300;2023-02-07T15:50:51;1.50;99.90
18797;DHT22;9526;52.612;13.300;2023-02-07T15:53:19;1.40;99.90
18797;DHT22;9526;52.612;13.300;2023-02-07T15:55:46;1.30;99.90
18797;DHT22;9526;52.612;13.300;2023-02-07T15:58:20;1.20;99.90